createdAt,value
2018-12-27T00:01:09.428Z,-0.70
2018-12-27T00:03:38.464Z,-0.70
2018-12-27T00:06:07.468Z,-0.70
2018-12-27T00:08:36.420Z,-0.70
2018-12-27T00:11:05.454Z,-0.70
2018-12-27T00:13:34.417Z,-0.80
2018-12-27T00:16:06.191Z,-0.70
2018-12-27T00:18:35.133Z,-0.70
2018-12-27T00:21:04.141Z,-0.70
2018-12-27T00:23:33.183Z,-0.70
2018-12-27T00:26:02.120Z,-0.60
2018-12-27T00:28:50.240Z,-0.60
2018-12-27T00:31:19.292Z,-0.50
2018-12-27T00:33:48.332Z,-0.50
2018-12-27T00:36:17.349Z,-0.50
2018-12-27T00:38:46.396Z,-0.50
2018-12-27T00:41:15.432Z,-0.50
2018-12-27T00:43:44.432Z,-0.60
2018-12-27T00:46:13.455Z,-0.50
2018-12-27T00:48:42.475Z,-0.50
2018-12-27T00:51:11.509Z,-0.50
2018-12-27T00:53:40.521Z,-0.50
2018-12-27T00:56:09.563Z,-0.50
2018-12-27T00:58:38.564Z,-0.40
2018-12-27T01:01:08.008Z,-0.40
2018-12-27T01:03:37.008Z,-0.30
2018-12-27T01:06:06.024Z,-0.30
2018-12-27T01:08:35.059Z,-0.30
2018-12-27T01:11:04.103Z,-0.30
2018-12-27T01:13:33.111Z,-0.30
2018-12-27T01:16:02.392Z,-0.20
2018-12-27T01:18:31.537Z,-0.20
2018-12-27T01:21:00.558Z,-0.10
2018-12-27T01:23:29.597Z,0.00
2018-12-27T01:25:58.611Z,0.00
2018-12-27T01:28:27.624Z,0.00
2018-12-27T01:30:57.154Z,0.00
2018-12-27T01:33:26.458Z,0.00
2018-12-27T01:35:55.464Z,0.00
2018-12-27T01:38:24.469Z,-0.10
2018-12-27T01:40:53.468Z,-0.10
2018-12-27T01:43:22.483Z,-0.10
2018-12-27T01:45:51.508Z,-0.10
2018-12-27T01:48:20.523Z,-0.10
2018-12-27T01:50:49.525Z,-0.10
2018-12-27T01:53:18.539Z,-0.10
2018-12-27T01:55:47.587Z,-0.20
2018-12-27T01:58:16.618Z,-0.20
2018-12-27T02:00:45.648Z,-0.20
2018-12-27T02:03:14.668Z,-0.20
2018-12-27T02:05:43.705Z,-0.20
2018-12-27T02:08:12.720Z,-0.20
2018-12-27T02:10:41.926Z,-0.10
2018-12-27T02:13:10.959Z,-0.10
2018-12-27T02:15:39.980Z,-0.10
2018-12-27T02:18:09.020Z,-0.10
2018-12-27T02:20:38.043Z,-0.10
2018-12-27T02:23:07.080Z,-0.10
2018-12-27T02:25:36.176Z,-0.20
2018-12-27T02:28:05.200Z,-0.20
2018-12-27T02:30:34.255Z,-0.20
2018-12-27T02:33:03.269Z,-0.30
2018-12-27T02:35:32.299Z,-0.30
2018-12-27T02:38:01.303Z,-0.30
2018-12-27T02:40:30.337Z,-0.40
2018-12-27T02:42:59.393Z,-0.40
2018-12-27T02:45:28.415Z,-0.40
2018-12-27T02:47:57.440Z,-0.40
2018-12-27T02:50:26.491Z,-0.40
2018-12-27T02:52:55.488Z,-0.50
2018-12-27T02:55:24.527Z,-0.50
2018-12-27T02:57:53.545Z,-0.50
2018-12-27T03:00:22.564Z,-0.60
2018-12-27T03:02:51.537Z,-0.60
2018-12-27T03:05:20.611Z,-0.60
2018-12-27T03:07:49.625Z,-0.60
2018-12-27T03:10:18.672Z,-0.60
2018-12-27T03:12:53.740Z,-0.60
2018-12-27T03:15:22.753Z,-0.60
2018-12-27T03:17:51.755Z,-0.60
2018-12-27T03:20:20.810Z,-0.70
2018-12-27T03:22:49.812Z,-0.70
2018-12-27T03:25:18.844Z,-0.70
2018-12-27T03:27:47.866Z,-0.70
2018-12-27T03:30:16.890Z,-0.70
2018-12-27T03:32:45.879Z,-0.80
2018-12-27T03:35:14.854Z,-0.80
2018-12-27T03:37:43.924Z,-0.70
2018-12-27T03:40:12.919Z,-0.70
2018-12-27T03:42:41.949Z,-0.70
2018-12-27T03:45:10.922Z,-0.70
2018-12-27T03:47:39.984Z,-0.70
2018-12-27T03:50:09.002Z,-0.70
2018-12-27T03:52:38.051Z,-0.80
2018-12-27T03:55:07.096Z,-0.80
2018-12-27T03:57:36.112Z,-0.70
2018-12-27T04:00:05.161Z,-0.70
2018-12-27T04:02:34.229Z,-0.70
2018-12-27T04:05:03.273Z,-0.70
2018-12-27T04:07:32.284Z,-0.70
2018-12-27T04:10:20.409Z,-0.70
2018-12-27T04:12:49.418Z,-0.60
2018-12-27T04:15:18.297Z,-0.60
2018-12-27T04:17:47.180Z,-0.60
2018-12-27T04:20:16.116Z,-0.60
2018-12-27T04:22:45.057Z,-0.60
2018-12-27T04:25:14.063Z,-0.60
2018-12-27T04:27:43.010Z,-0.60
2018-12-27T04:30:11.934Z,-0.60
2018-12-27T04:32:42.362Z,-0.60
2018-12-27T04:35:12.272Z,-0.50
2018-12-27T04:37:41.157Z,-0.50
2018-12-27T04:40:10.235Z,-0.50
2018-12-27T04:42:40.227Z,-0.50
2018-12-27T04:45:09.105Z,-0.50
2018-12-27T04:47:38.060Z,-0.50
2018-12-27T04:50:07.080Z,-0.40
2018-12-27T04:52:36.007Z,-0.30
2018-12-27T04:55:05.021Z,-0.30
2018-12-27T04:57:34.047Z,-0.30
2018-12-27T05:00:03.051Z,-0.30
2018-12-27T05:02:32.010Z,-0.30
2018-12-27T05:05:00.941Z,-0.30
2018-12-27T05:07:29.984Z,-0.30
2018-12-27T05:09:58.909Z,-0.40
2018-12-27T05:12:27.769Z,-0.30
2018-12-27T05:14:56.628Z,-0.30
2018-12-27T05:17:25.496Z,-0.40
2018-12-27T05:19:54.460Z,-0.40
2018-12-27T05:22:23.402Z,-0.50
2018-12-27T05:24:52.260Z,-0.50
2018-12-27T05:27:21.567Z,-0.60
2018-12-27T05:29:50.621Z,-0.70
2018-12-27T05:32:19.533Z,-0.70
2018-12-27T05:34:48.480Z,-0.80
2018-12-27T05:37:18.416Z,-0.90
2018-12-27T05:39:47.767Z,-0.90
2018-12-27T05:42:16.739Z,-1.00
2018-12-27T05:44:45.602Z,-1.00
2018-12-27T05:47:14.495Z,-1.00
2018-12-27T05:49:43.319Z,-1.00
2018-12-27T05:52:12.393Z,-1.00
2018-12-27T05:54:41.314Z,-1.00
2018-12-27T05:57:10.189Z,-1.00
2018-12-27T05:59:39.140Z,-1.00
2018-12-27T06:02:07.996Z,-1.00
2018-12-27T06:04:37.013Z,-1.00
2018-12-27T06:07:05.968Z,-1.00
2018-12-27T06:09:34.900Z,-1.00
2018-12-27T06:12:03.780Z,-1.00
2018-12-27T06:14:32.804Z,-1.10
2018-12-27T06:17:01.845Z,-1.10
2018-12-27T06:19:30.738Z,-1.10
2018-12-27T06:21:59.692Z,-1.10
2018-12-27T06:24:28.693Z,-1.10
2018-12-27T06:26:57.657Z,-1.10
2018-12-27T06:29:26.667Z,-1.00
2018-12-27T06:31:55.565Z,-1.00
2018-12-27T06:34:24.588Z,-0.90
2018-12-27T06:36:53.497Z,-0.90
2018-12-27T06:39:22.952Z,-0.80
2018-12-27T06:41:51.830Z,-0.80
2018-12-27T06:44:20.687Z,-0.80
2018-12-27T06:46:49.544Z,-0.80
2018-12-27T06:49:37.607Z,-0.80
2018-12-27T06:52:06.544Z,-0.80
2018-12-27T06:54:35.546Z,-0.80
2018-12-27T06:57:04.485Z,-0.80
2018-12-27T06:59:33.444Z,-0.80
2018-12-27T07:02:02.455Z,-0.80
2018-12-27T07:04:31.484Z,-0.80
2018-12-27T07:07:00.432Z,-0.80
2018-12-27T07:09:29.316Z,-0.80
2018-12-27T07:11:58.315Z,-0.80
2018-12-27T07:14:27.190Z,-0.80
2018-12-27T07:16:56.072Z,-0.80
2018-12-27T07:19:24.948Z,-0.80
2018-12-27T07:21:53.883Z,-0.70
2018-12-27T07:24:22.776Z,-0.60
2018-12-27T07:26:51.840Z,-0.50
2018-12-27T07:29:20.709Z,-0.50
2018-12-27T07:31:49.720Z,-0.40
2018-12-27T07:34:18.670Z,-0.40
2018-12-27T07:36:47.563Z,-0.40
2018-12-27T07:39:16.570Z,-0.30
2018-12-27T07:41:45.518Z,-0.30
2018-12-27T07:44:14.468Z,-0.20
2018-12-27T07:46:43.311Z,-0.10
2018-12-27T07:49:12.287Z,0.00
2018-12-27T07:51:41.295Z,0.10
2018-12-27T07:54:10.140Z,0.30
2018-12-27T07:56:39.076Z,0.40
2018-12-27T07:59:08.116Z,0.50
2018-12-27T08:01:37.046Z,0.60
2018-12-27T08:04:05.918Z,0.70
2018-12-27T08:06:34.792Z,0.80
2018-12-27T08:09:05.229Z,0.90
2018-12-27T08:11:34.235Z,1.00
2018-12-27T08:14:06.247Z,1.10
2018-12-27T08:16:35.180Z,1.20
2018-12-27T08:19:04.124Z,1.30
2018-12-27T08:21:33.011Z,1.40
2018-12-27T08:24:01.971Z,1.50
2018-12-27T08:26:30.895Z,1.60
2018-12-27T08:28:59.767Z,1.70
2018-12-27T08:31:28.755Z,1.80
2018-12-27T08:33:57.785Z,1.90
2018-12-27T08:36:26.628Z,2.00
2018-12-27T08:38:55.580Z,2.10
2018-12-27T08:41:24.580Z,2.00
2018-12-27T08:43:53.614Z,2.10
2018-12-27T08:46:22.567Z,2.00
2018-12-27T08:48:51.411Z,2.10
2018-12-27T08:51:20.281Z,2.20
2018-12-27T08:53:49.196Z,2.20
2018-12-27T08:56:18.213Z,2.20
2018-12-27T08:58:47.059Z,2.20
2018-12-27T09:01:16.008Z,2.30
2018-12-27T09:03:48.032Z,2.40
2018-12-27T09:06:16.984Z,2.40
2018-12-27T09:08:45.836Z,2.50
2018-12-27T09:11:14.740Z,2.60
2018-12-27T09:13:43.606Z,2.70
2018-12-27T09:16:12.468Z,2.80
2018-12-27T09:18:41.392Z,2.90
2018-12-27T09:21:10.259Z,2.90
2018-12-27T09:23:39.155Z,3.00
2018-12-27T09:26:08.153Z,3.00
2018-12-27T09:28:37.075Z,3.10
2018-12-27T09:31:06.011Z,3.20
2018-12-27T09:33:34.922Z,3.30
2018-12-27T09:36:03.885Z,3.50
2018-12-27T09:38:32.735Z,3.70
2018-12-27T09:41:01.700Z,3.80
2018-12-27T09:43:30.689Z,3.90
2018-12-27T09:45:59.655Z,4.00
2018-12-27T09:48:28.666Z,4.10
2018-12-27T09:50:57.669Z,4.20
2018-12-27T09:53:26.608Z,4.30
2018-12-27T09:55:55.487Z,4.30
2018-12-27T09:58:24.466Z,4.50
2018-12-27T10:00:53.433Z,4.70
2018-12-27T10:03:22.380Z,4.80
2018-12-27T10:05:51.292Z,5.00
2018-12-27T10:08:20.312Z,5.20
2018-12-27T10:10:49.304Z,5.30
2018-12-27T10:13:18.241Z,5.50
2018-12-27T10:15:47.247Z,5.60
2018-12-27T10:18:16.259Z,5.70
2018-12-27T10:20:45.215Z,5.90
2018-12-27T10:23:14.168Z,6.00
2018-12-27T10:25:43.225Z,6.10
2018-12-27T10:28:12.259Z,6.20
2018-12-27T10:30:41.168Z,6.20
2018-12-27T10:33:10.032Z,6.40
2018-12-27T10:35:41.256Z,6.50
2018-12-27T10:38:09.517Z,6.70
2018-12-27T10:40:38.458Z,6.90
2018-12-27T10:43:07.315Z,7.10
2018-12-27T10:45:36.639Z,7.40
2018-12-27T10:48:05.629Z,7.80
2018-12-27T10:50:34.525Z,8.40
2018-12-27T10:53:03.494Z,9.30
2018-12-27T10:55:32.419Z,10.50
2018-12-27T10:58:01.371Z,11.80
2018-12-27T11:00:30.396Z,12.50
2018-12-27T11:02:59.298Z,13.00
2018-12-27T11:05:28.277Z,13.30
2018-12-27T11:07:57.151Z,13.60
2018-12-27T11:10:26.004Z,13.90
2018-12-27T11:12:54.876Z,14.00
2018-12-27T11:15:23.845Z,14.10
2018-12-27T11:17:54.319Z,14.10
2018-12-27T11:20:23.234Z,14.40
2018-12-27T11:22:52.231Z,14.40
2018-12-27T11:25:21.055Z,14.20
2018-12-27T11:27:50.116Z,14.00
2018-12-27T11:30:19.072Z,13.70
2018-12-27T11:32:48.106Z,13.70
2018-12-27T11:35:17.137Z,13.80
2018-12-27T11:37:45.991Z,14.10
2018-12-27T11:40:14.952Z,15.00
2018-12-27T11:42:43.915Z,16.60
2018-12-27T11:45:12.932Z,18.30
2018-12-27T11:47:41.883Z,19.90
2018-12-27T11:50:10.908Z,21.30
2018-12-27T11:52:39.848Z,22.10
2018-12-27T11:55:08.737Z,22.70
2018-12-27T11:57:37.605Z,23.40
2018-12-27T12:00:08.351Z,23.90
2018-12-27T12:02:37.276Z,24.10
2018-12-27T12:05:06.650Z,24.00
2018-12-27T12:07:35.539Z,23.80
2018-12-27T12:10:05.144Z,22.50
2018-12-27T12:12:34.173Z,21.20
2018-12-27T12:15:03.436Z,19.80
2018-12-27T12:17:32.414Z,18.70
2018-12-27T12:20:01.338Z,18.00
2018-12-27T12:22:30.276Z,17.40
2018-12-27T12:24:59.247Z,17.00
2018-12-27T12:27:28.348Z,17.50
2018-12-27T12:29:57.357Z,17.80
2018-12-27T12:32:26.268Z,17.40
2018-12-27T12:34:55.232Z,16.80
2018-12-27T12:37:24.667Z,16.60
2018-12-27T12:39:53.763Z,16.20
2018-12-27T12:42:32.839Z,15.80
2018-12-27T12:44:53.425Z,15.40
2018-12-27T12:47:22.360Z,14.90
2018-12-27T12:49:51.236Z,14.40
2018-12-27T12:52:20.299Z,14.00
2018-12-27T12:54:49.220Z,13.80
2018-12-27T12:57:18.865Z,13.60
2018-12-27T12:59:47.864Z,13.50
2018-12-27T13:02:16.824Z,13.20
2018-12-27T13:04:45.843Z,12.80
2018-12-27T13:07:14.864Z,12.50
2018-12-27T13:09:43.873Z,12.40
2018-12-27T13:12:12.823Z,12.30
2018-12-27T13:14:41.828Z,12.20
2018-12-27T13:17:10.868Z,12.30
2018-12-27T13:19:39.813Z,11.90
2018-12-27T13:22:08.831Z,11.60
2018-12-27T13:24:37.794Z,11.20
2018-12-27T13:27:07.060Z,10.80
2018-12-27T13:29:36.088Z,10.80
2018-12-27T13:32:05.248Z,10.50
2018-12-27T13:34:34.215Z,10.30
2018-12-27T13:37:03.223Z,10.00
2018-12-27T13:39:32.256Z,9.90
2018-12-27T13:42:01.198Z,9.90
2018-12-27T13:44:30.128Z,9.70
2018-12-27T13:46:59.403Z,9.50
2018-12-27T13:49:28.411Z,9.40
2018-12-27T13:51:57.313Z,9.20
2018-12-27T13:54:26.277Z,9.00
2018-12-27T13:56:55.183Z,8.80
2018-12-27T13:59:24.167Z,8.70
2018-12-27T14:01:53.223Z,8.50
2018-12-27T14:04:22.272Z,8.30
2018-12-27T14:06:51.212Z,8.10
2018-12-27T14:09:20.117Z,7.90
2018-12-27T14:11:49.197Z,7.70
2018-12-27T14:14:18.139Z,7.40
2018-12-27T14:16:47.089Z,7.20
2018-12-27T14:19:16.020Z,6.90
2018-12-27T14:21:45.056Z,6.70
2018-12-27T14:24:13.909Z,6.60
2018-12-27T14:26:42.846Z,6.40
2018-12-27T14:29:11.791Z,6.30
2018-12-27T14:31:40.804Z,6.10
2018-12-27T14:34:09.852Z,6.00
2018-12-27T14:36:39.838Z,5.90
2018-12-27T14:39:09.080Z,5.70
2018-12-27T14:41:38.104Z,5.60
2018-12-27T14:44:07.016Z,5.60
2018-12-27T14:46:36.013Z,5.50
2018-12-27T14:49:04.976Z,5.40
2018-12-27T14:51:33.980Z,5.30
2018-12-27T14:54:02.966Z,5.20
2018-12-27T14:56:32.013Z,5.10
2018-12-27T14:59:00.978Z,5.00
2018-12-27T15:01:30.008Z,4.90
2018-12-27T15:03:58.968Z,4.80
2018-12-27T15:06:27.911Z,4.70
2018-12-27T15:08:56.815Z,4.60
2018-12-27T15:11:25.773Z,4.60
2018-12-27T15:13:54.644Z,4.50
2018-12-27T15:16:23.596Z,4.40
2018-12-27T15:18:52.548Z,4.40
2018-12-27T15:21:21.607Z,4.30
2018-12-27T15:23:50.646Z,4.20
2018-12-27T15:26:19.579Z,4.10
2018-12-27T15:28:48.527Z,4.10
2018-12-27T15:31:17.554Z,4.10
2018-12-27T15:33:46.448Z,4.00
2018-12-27T15:36:15.382Z,3.90
2018-12-27T15:38:44.268Z,3.80
2018-12-27T15:41:13.199Z,3.80
2018-12-27T15:43:42.193Z,3.70
2018-12-27T15:46:11.068Z,3.70
2018-12-27T15:48:40.092Z,3.60
2018-12-27T15:51:09.043Z,3.60
2018-12-27T15:53:37.975Z,3.60
2018-12-27T15:56:07.033Z,3.50
2018-12-27T15:58:35.992Z,3.50
2018-12-27T16:01:05.009Z,3.40
2018-12-27T16:03:33.924Z,3.40
2018-12-27T16:06:02.944Z,3.40
2018-12-27T16:08:31.882Z,3.30
2018-12-27T16:11:00.912Z,3.30
2018-12-27T16:13:29.839Z,3.30
2018-12-27T16:15:58.803Z,3.30
2018-12-27T16:18:27.839Z,3.20
2018-12-27T16:20:56.789Z,3.20
2018-12-27T16:23:25.795Z,3.20
2018-12-27T16:25:54.784Z,3.20
2018-12-27T16:28:23.643Z,3.20
2018-12-27T16:30:52.616Z,3.20
2018-12-27T16:33:21.665Z,3.20
2018-12-27T16:35:50.700Z,3.20
2018-12-27T16:38:19.551Z,3.20
2018-12-27T16:40:48.561Z,3.10
2018-12-27T16:43:17.776Z,3.10
2018-12-27T16:45:46.826Z,3.10
2018-12-27T16:48:15.748Z,3.10
2018-12-27T16:50:44.636Z,3.10
2018-12-27T16:53:13.568Z,3.10
2018-12-27T16:55:42.608Z,3.10
2018-12-27T16:58:11.511Z,3.10
2018-12-27T17:00:40.486Z,3.10
2018-12-27T17:03:09.435Z,3.20
2018-12-27T17:05:38.322Z,3.20
2018-12-27T17:08:07.379Z,3.20
2018-12-27T17:10:36.345Z,3.20
2018-12-27T17:13:05.293Z,3.20
2018-12-27T17:15:34.230Z,3.20
2018-12-27T17:18:03.267Z,3.20
2018-12-27T17:20:32.287Z,3.20
2018-12-27T17:23:01.162Z,3.20
2018-12-27T17:25:30.065Z,3.20
2018-12-27T17:27:59.013Z,3.20
2018-12-27T17:30:28.042Z,3.20
2018-12-27T17:32:56.910Z,3.10
2018-12-27T17:35:25.804Z,3.10
2018-12-27T17:37:54.828Z,3.00
2018-12-27T17:40:23.762Z,3.10
2018-12-27T17:42:52.840Z,3.00
2018-12-27T17:45:21.818Z,3.00
2018-12-27T17:47:50.765Z,3.00
2018-12-27T17:50:19.769Z,2.90
2018-12-27T17:52:48.812Z,3.00
2018-12-27T17:55:17.680Z,2.90
2018-12-27T17:57:52.395Z,2.90
2018-12-27T18:00:21.292Z,2.90
2018-12-27T18:02:50.162Z,2.90
2018-12-27T18:05:19.129Z,2.90
2018-12-27T18:07:48.076Z,2.80
2018-12-27T18:10:17.170Z,2.80
2018-12-27T18:12:46.086Z,2.80
2018-12-27T18:15:15.112Z,2.80
2018-12-27T18:17:44.036Z,2.70
2018-12-27T18:20:13.522Z,2.80
2018-12-27T18:22:42.464Z,2.80
2018-12-27T18:25:11.408Z,2.80
2018-12-27T18:27:40.368Z,2.80
2018-12-27T18:30:09.379Z,2.90
2018-12-27T18:32:39.276Z,2.90
2018-12-27T18:35:08.543Z,2.90
2018-12-27T18:37:38.068Z,2.90
2018-12-27T18:40:07.417Z,2.90
2018-12-27T18:42:36.361Z,2.90
2018-12-27T18:45:05.580Z,2.90
2018-12-27T18:47:34.501Z,2.90
2018-12-27T18:50:03.885Z,2.80
2018-12-27T18:52:32.913Z,2.80
2018-12-27T18:55:01.898Z,2.80
2018-12-27T18:57:30.836Z,2.80
2018-12-27T18:59:59.888Z,2.80
2018-12-27T19:02:28.860Z,2.80
2018-12-27T19:04:57.816Z,2.70
2018-12-27T19:07:26.760Z,2.80
2018-12-27T19:09:55.858Z,2.70
2018-12-27T19:13:00.593Z,2.70
2018-12-27T19:15:30.615Z,2.70
2018-12-27T19:18:13.468Z,2.70
2018-12-27T19:20:43.667Z,2.70
2018-12-27T19:23:18.299Z,2.70
2018-12-27T19:25:47.262Z,2.70
2018-12-27T19:28:16.176Z,2.70
2018-12-27T19:30:45.247Z,2.70
2018-12-27T19:33:33.380Z,2.70
2018-12-27T19:36:02.421Z,2.70
2018-12-27T19:38:31.272Z,2.70
2018-12-27T19:41:00.249Z,2.70
2018-12-27T19:43:29.257Z,2.70
2018-12-27T19:45:58.216Z,2.70
2018-12-27T19:48:27.224Z,2.70
2018-12-27T19:50:56.250Z,2.70
2018-12-27T19:53:25.204Z,2.70
2018-12-27T19:55:54.238Z,2.80
2018-12-27T19:58:23.290Z,2.80
2018-12-27T20:00:52.306Z,2.80
2018-12-27T20:03:21.188Z,2.80
2018-12-27T20:05:50.261Z,2.80
2018-12-27T20:08:19.221Z,2.80
2018-12-27T20:10:48.145Z,2.80
2018-12-27T20:13:17.128Z,2.90
2018-12-27T20:15:46.105Z,2.80
2018-12-27T20:18:15.103Z,2.80
2018-12-27T20:20:44.077Z,2.80
2018-12-27T20:23:13.035Z,2.80
2018-12-27T20:25:41.882Z,2.80
2018-12-27T20:28:10.797Z,2.90
2018-12-27T20:30:39.820Z,2.90
2018-12-27T20:33:08.868Z,2.90
2018-12-27T20:35:37.844Z,2.80
2018-12-27T20:38:07.073Z,2.80
2018-12-27T20:40:36.073Z,2.80
2018-12-27T20:43:10.908Z,2.80
2018-12-27T20:45:39.966Z,2.70
2018-12-27T20:48:08.986Z,2.70
2018-12-27T20:50:37.979Z,2.70
2018-12-27T20:53:06.936Z,2.70
2018-12-27T20:55:35.898Z,2.70
2018-12-27T20:58:04.972Z,2.70
2018-12-27T21:00:33.986Z,2.70
2018-12-27T21:03:02.876Z,2.70
2018-12-27T21:05:51.036Z,2.60
2018-12-27T21:08:20.009Z,2.70
2018-12-27T21:10:48.956Z,2.60
2018-12-27T21:13:18.045Z,2.60
2018-12-27T21:15:46.988Z,2.60
2018-12-27T21:18:15.996Z,2.60
2018-12-27T21:20:44.915Z,2.50
2018-12-27T21:23:13.859Z,2.50
2018-12-27T21:25:42.896Z,2.50
2018-12-27T21:28:12.016Z,2.40
2018-12-27T21:30:40.976Z,2.40
2018-12-27T21:33:09.888Z,2.40
2018-12-27T21:35:38.928Z,2.40
2018-12-27T21:38:07.796Z,2.40
2018-12-27T21:40:36.791Z,2.40
2018-12-27T21:43:05.807Z,2.50
2018-12-27T21:45:34.767Z,2.50
2018-12-27T21:48:03.823Z,2.50
2018-12-27T21:50:32.780Z,2.60
2018-12-27T21:53:01.800Z,2.50
2018-12-27T21:55:30.736Z,2.60
2018-12-27T21:57:59.599Z,2.60
2018-12-27T22:00:28.695Z,2.50
2018-12-27T22:02:57.767Z,2.50
2018-12-27T22:05:26.755Z,2.50
2018-12-27T22:07:55.783Z,2.60
2018-12-27T22:10:43.818Z,2.60
2018-12-27T22:13:12.709Z,2.60
2018-12-27T22:15:41.672Z,2.60
2018-12-27T22:18:10.516Z,2.60
2018-12-27T22:20:39.453Z,2.60
2018-12-27T22:23:08.371Z,2.60
2018-12-27T22:25:37.371Z,2.60
2018-12-27T22:28:06.317Z,2.70
2018-12-27T22:30:35.318Z,2.70
2018-12-27T22:33:04.328Z,2.70
2018-12-27T22:35:33.184Z,2.70
2018-12-27T22:38:02.196Z,2.70
2018-12-27T22:40:31.204Z,2.70
2018-12-27T22:43:00.084Z,2.70
2018-12-27T22:45:28.968Z,2.60
2018-12-27T22:47:57.978Z,2.60
2018-12-27T22:50:26.921Z,2.70
2018-12-27T22:52:55.891Z,2.70
2018-12-27T22:55:24.967Z,2.70
2018-12-27T22:57:53.870Z,2.70
2018-12-27T23:00:41.980Z,2.70
2018-12-27T23:03:10.988Z,2.60
2018-12-27T23:05:39.936Z,2.60
2018-12-27T23:08:08.904Z,2.60
2018-12-27T23:10:37.859Z,2.70
2018-12-27T23:13:06.849Z,2.70
2018-12-27T23:15:35.828Z,2.70
2018-12-27T23:18:04.868Z,2.70
2018-12-27T23:20:33.891Z,2.60
2018-12-27T23:23:02.857Z,2.60
2018-12-27T23:25:31.790Z,2.50
2018-12-27T23:28:00.716Z,2.50
2018-12-27T23:30:29.655Z,2.50
2018-12-27T23:32:58.690Z,2.50
2018-12-27T23:35:27.597Z,2.50
2018-12-27T23:37:56.600Z,2.50
2018-12-27T23:40:25.582Z,2.50
2018-12-27T23:42:54.541Z,2.50
2018-12-27T23:45:23.556Z,2.50
2018-12-27T23:47:52.457Z,2.40
2018-12-27T23:50:21.531Z,2.40
2018-12-27T23:52:50.581Z,2.40
2018-12-27T23:55:19.621Z,2.40
2018-12-27T23:57:48.514Z,2.40
